Time;durP1;ratioP1;P1;durP2;ratioP2;P2;SDS_P1;SDS_P2;PMS_P1;PMS_P2;Temp;Humidity;BMP_temperature;BMP_pressure;BME280_temperature;BME280_humidity;BME280_pressure;Samples;Min_cycle;Max_cycle;Signal;HPM_P1;HPM_P2
2024/03/16 00:01:31;;;;;;;14.40;9.80;;;;;;;7.79;74.57;96472.64;108577;1274;22542;-74
2024/03/16 00:04:02;;;;;;;13.40;7.90;;;;;;;7.76;74.61;96471.27;108549;1275;22525;-74
2024/03/16 00:06:33;;;;;;;11.70;8.90;;;;;;;7.76;74.54;96470.63;108595;1274;25308;-74
2024/03/16 00:09:04;;;;;;;12.10;9.10;;;;;;;7.78;74.44;96468.79;108580;1272;22536;-74
2024/03/16 00:11:35;;;;;;;11.80;8.80;;;;;;;7.77;74.52;96465.41;108589;1275;22589;-74
2024/03/16 00:14:06;;;;;;;12.20;8.30;;;;;;;7.75;74.51;96470.11;108605;1275;22543;-74
2024/03/16 00:16:39;;;;;;;14.60;10.20;;;;;;;7.75;74.59;96467.10;108610;1275;22533;-74
2024/03/16 00:19:09;;;;;;;13.00;8.70;;;;;;;7.75;74.50;96469.38;108607;1274;22526;-73
2024/03/16 00:21:39;;;;;;;11.90;8.80;;;;;;;7.78;74.55;96469.20;108615;1275;22542;-74
2024/03/16 00:24:11;;;;;;;11.20;8.90;;;;;;;7.80;74.39;96469.36;108585;1268;22631;-74
2024/03/16 00:26:41;;;;;;;12.70;9.50;;;;;;;7.79;74.48;96467.25;108555;1272;22531;-74
2024/03/16 00:29:12;;;;;;;11.70;8.80;;;;;;;7.77;74.64;96467.89;108606;1275;22534;-74
2024/03/16 00:31:48;;;;;;;12.30;9.50;;;;;;;7.74;74.53;96464.45;108581;1275;22510;-74
2024/03/16 00:34:21;;;;;;;13.80;9.40;;;;;;;7.75;74.71;96466.14;108625;1274;22552;-74
2024/03/16 00:36:52;;;;;;;14.00;9.40;;;;;;;7.77;74.57;96466.52;108632;1275;22523;-74
2024/03/16 00:39:23;;;;;;;12.40;8.90;;;;;;;7.79;74.66;96463.08;108619;1275;22546;-74
2024/03/16 00:41:54;;;;;;;11.90;8.90;;;;;;;7.85;74.68;96461.65;108598;1275;22541;-74
2024/03/16 00:44:24;;;;;;;12.10;8.80;;;;;;;7.90;74.56;96455.91;108584;1267;22522;-74
2024/03/16 00:46:55;;;;;;;13.90;9.80;;;;;;;7.92;74.56;96452.58;108612;1275;23457;-74
2024/03/16 00:50:14;;;;;;;13.00;8.60;;;;;;;7.93;74.39;96446.88;108588;1275;25411;-74
2024/03/16 00:52:49;;;;;;;12.30;8.80;;;;;;;7.97;73.71;96446.77;108493;1275;22526;-73
2024/03/16 00:55:20;;;;;;;11.50;8.50;;;;;;;8.03;73.57;96441.05;108571;1269;24230;-73
2024/03/16 00:57:50;;;;;;;12.90;9.00;;;;;;;8.04;73.47;96438.54;108577;1273;22658;-73
2024/03/16 01:00:23;;;;;;;14.40;9.70;;;;;;;8.02;73.42;96443.23;108592;1275;22600;-73
2024/03/16 01:02:54;;;;;;;12.40;8.80;;;;;;;8.00;73.37;96442.37;108548;1275;22523;-73
2024/03/16 01:05:26;;;;;;;12.10;9.30;;;;;;;7.97;73.39;96440.58;108627;1275;22585;-73
2024/03/16 01:07:57;;;;;;;12.50;8.70;;;;;;;7.96;73.37;96434.84;108640;1275;22526;-73
2024/03/16 01:10:28;;;;;;;12.00;8.10;;;;;;;7.95;73.46;96433.14;108625;1275;22598;-73
2024/03/16 01:12:59;;;;;;;12.30;8.50;;;;;;;7.90;73.41;96432.31;108596;1275;22635;-74
2024/03/16 01:15:29;;;;;;;12.60;8.80;;;;;;;7.87;73.47;96426.23;108600;1272;22557;-73
2024/03/16 01:17:59;;;;;;;12.60;8.90;;;;;;;7.84;73.55;96425.17;108589;1275;22520;-73
2024/03/16 01:20:30;;;;;;;13.80;9.60;;;;;;;7.83;73.54;96424.50;108627;1275;22526;-74
2024/03/16 01:23:04;;;;;;;11.10;8.10;;;;;;;7.85;73.56;96415.30;108593;1272;22561;-73
2024/03/16 01:25:35;;;;;;;12.20;8.00;;;;;;;7.87;73.56;96417.57;108620;1275;22523;-73
2024/03/16 01:28:06;;;;;;;11.70;8.80;;;;;;;7.88;73.46;96417.15;108642;1269;22545;-73
2024/03/16 01:30:36;;;;;;;11.50;8.50;;;;;;;7.88;73.37;96415.25;108608;1275;22526;-73
2024/03/16 01:33:07;;;;;;;12.30;8.60;;;;;;;7.88;73.33;96415.41;108613;1275;25220;-73
2024/03/16 01:35:40;;;;;;;11.80;8.30;;;;;;;7.87;73.29;96410.54;108615;1271;22541;-74
2024/03/16 01:38:14;;;;;;;11.30;8.50;;;;;;;7.84;73.29;96408.18;108606;1275;22607;-73
2024/03/16 01:40:44;;;;;;;13.50;9.20;;;;;;;7.85;73.22;96412.50;108607;1275;22532;-74
2024/03/16 01:43:15;;;;;;;13.40;9.00;;;;;;;7.85;73.00;96412.09;108555;1274;22822;-73
2024/03/16 01:45:46;;;;;;;11.10;7.80;;;;;;;7.84;73.00;96410.55;108598;1274;22528;-73
2024/03/16 01:48:16;;;;;;;12.80;8.80;;;;;;;7.84;72.81;96410.50;108611;1275;22520;-74
2024/03/16 01:50:47;;;;;;;12.00;8.70;;;;;;;7.85;72.66;96409.13;108592;1275;22526;-73
2024/03/16 01:53:19;;;;;;;12.10;8.20;;;;;;;7.86;72.69;96409.86;108602;1269;22539;-73
2024/03/16 01:55:50;;;;;;;10.70;8.10;;;;;;;7.87;72.55;96412.81;108598;1275;23346;-73
2024/03/16 01:58:20;;;;;;;12.20;8.60;;;;;;;7.87;72.51;96413.83;108587;1272;22538;-74
2024/03/16 02:00:51;;;;;;;11.80;8.50;;;;;;;7.89;72.28;96410.68;108595;1275;22540;-73
2024/03/16 02:03:22;;;;;;;12.70;8.70;;;;;;;7.93;72.18;96416.15;108615;1275;25292;-74
2024/03/16 02:05:53;;;;;;;12.40;8.80;;;;;;;7.94;72.34;96417.36;108616;1275;22539;-73
2024/03/16 02:08:28;;;;;;;13.00;8.80;;;;;;;7.94;72.41;96411.50;108574;1271;24302;-73
2024/03/16 02:10:58;;;;;;;12.80;8.20;;;;;;;7.96;72.36;96415.09;108701;1267;24029;-73
2024/03/16 02:13:28;;;;;;;14.40;9.80;;;;;;;7.98;72.22;96416.40;108614;1275;22531;-73
2024/03/16 02:15:58;;;;;;;13.30;8.70;;;;;;;8.03;72.17;96419.04;108657;1275;22632;-73
2024/03/16 02:18:29;;;;;;;12.60;9.50;;;;;;;8.08;72.11;96416.77;108590;1275;22847;-73
2024/03/16 02:21:00;;;;;;;11.00;8.20;;;;;;;8.10;72.05;96420.61;108629;1272;22527;-73
2024/03/16 02:23:31;;;;;;;13.90;9.00;;;;;;;8.11;71.93;96418.02;108579;1275;22522;-73
2024/03/16 02:26:02;;;;;;;12.10;8.50;;;;;;;8.10;71.78;96418.61;108614;1271;23819;-73
2024/03/16 02:28:33;;;;;;;12.40;9.30;;;;;;;8.08;71.80;96418.09;108562;1272;22651;-74
2024/03/16 02:31:06;;;;;;;11.40;8.30;;;;;;;8.06;71.66;96414.08;108588;1272;22522;-73
2024/03/16 02:33:37;;;;;;;12.10;7.70;;;;;;;8.08;71.65;96418.66;108506;1275;24410;-73
2024/03/16 02:36:07;;;;;;;11.90;8.20;;;;;;;8.10;71.34;96409.58;108609;1271;22552;-73
2024/03/16 02:38:41;;;;;;;11.70;8.20;;;;;;;8.10;71.15;96412.16;108576;1275;22542;-73
2024/03/16 02:41:11;;;;;;;12.00;7.80;;;;;;;8.11;70.87;96406.98;108557;1275;22517;-73
2024/03/16 02:43:42;;;;;;;14.30;8.90;;;;;;;8.11;70.53;96400.60;108586;1275;22516;-73
2024/03/16 02:46:12;;;;;;;12.70;9.00;;;;;;;8.13;70.18;96406.04;108605;1275;22523;-73
2024/03/16 02:48:45;;;;;;;13.30;9.40;;;;;;;8.09;70.37;96401.50;108585;1275;22539;-73
2024/03/16 02:51:15;;;;;;;9.20;6.50;;;;;;;8.07;70.35;96403.46;108647;1270;22516;-73
2024/03/16 02:53:46;;;;;;;12.00;8.90;;;;;;;8.06;70.44;96409.81;108537;1275;22525;-73
2024/03/16 02:56:19;;;;;;;10.80;7.60;;;;;;;8.06;70.46;96403.68;108607;1275;22522;-73
2024/03/16 02:58:50;;;;;;;10.40;7.30;;;;;;;8.09;70.24;96411.95;108608;1274;22521;-73
2024/03/16 03:01:20;;;;;;;14.00;9.90;;;;;;;8.09;70.37;96417.30;108585;1275;25401;-73
2024/03/16 03:03:50;;;;;;;13.20;8.20;;;;;;;8.09;70.35;96415.02;108609;1275;22557;-73
2024/03/16 03:06:21;;;;;;;12.20;7.80;;;;;;;8.11;70.13;96413.73;108614;1270;22526;-73
2024/03/16 03:08:51;;;;;;;11.30;8.00;;;;;;;8.11;69.94;96421.20;108577;1275;22583;-73
2024/03/16 03:11:25;;;;;;;12.50;8.80;;;;;;;8.10;69.92;96416.48;108586;1270;22537;-73
2024/03/16 03:13:55;;;;;;;11.00;8.50;;;;;;;8.11;69.62;96414.38;108596;1275;22535;-73
2024/03/16 03:16:26;;;;;;;11.00;8.00;;;;;;;8.13;69.52;96416.85;108602;1275;22523;-74
2024/03/16 03:18:56;;;;;;;13.60;9.10;;;;;;;8.14;69.26;96422.08;108607;1272;22983;-73
2024/03/16 03:21:26;;;;;;;11.00;8.70;;;;;;;8.14;69.45;96425.72;108598;1269;22532;-73
2024/03/16 03:23:59;;;;;;;8.70;6.00;;;;;;;8.10;69.57;96423.67;108571;1275;22568;-73
2024/03/16 03:26:29;;;;;;;11.20;7.90;;;;;;;8.09;69.43;96418.67;108622;1275;22864;-73
2024/03/16 03:29:00;;;;;;;11.20;8.10;;;;;;;8.10;69.31;96426.58;108575;1275;22520;-74
2024/03/16 03:31:32;;;;;;;13.80;8.40;;;;;;;8.09;69.43;96430.55;108622;1272;22598;-73
2024/03/16 03:34:03;;;;;;;11.80;6.80;;;;;;;8.06;69.56;96421.15;108573;1267;26710;-73
2024/03/16 03:36:35;;;;;;;10.50;7.00;;;;;;;8.06;69.29;96425.33;108617;1272;22650;-73
2024/03/16 03:39:06;;;;;;;8.60;5.60;;;;;;;8.07;69.26;96428.44;108557;1269;22523;-73
2024/03/16 03:41:37;;;;;;;11.40;7.50;;;;;;;8.08;69.19;96426.59;108591;1272;22536;-73
2024/03/16 03:44:20;;;;;;;10.00;6.50;;;;;;;8.08;69.35;96429.02;108584;1272;22530;-73
2024/03/16 03:46:51;;;;;;;12.30;8.50;;;;;;;8.07;69.49;96428.86;108612;1275;22537;-74
2024/03/16 03:49:29;;;;;;;10.00;7.30;;;;;;;8.07;69.66;96430.98;108565;1272;24331;-73
2024/03/16 03:51:59;;;;;;;11.80;8.10;;;;;;;8.04;69.81;96429.02;108584;1275;24186;-73
2024/03/16 03:54:33;;;;;;;11.80;7.70;;;;;;;8.02;69.89;96426.59;108595;1272;25448;-73
2024/03/16 03:57:05;;;;;;;11.90;9.30;;;;;;;8.00;69.88;96432.07;108611;1275;24618;-73
2024/03/16 03:59:36;;;;;;;9.60;7.10;;;;;;;7.96;70.14;96428.23;108599;1270;25627;-73
2024/03/16 04:02:06;;;;;;;10.00;7.40;;;;;;;7.95;70.03;96419.20;108597;1275;22572;-74
2024/03/16 04:04:36;;;;;;;9.90;6.70;;;;;;;7.99;69.97;96422.36;108584;1275;22820;-74
2024/03/16 04:07:07;;;;;;;10.60;6.90;;;;;;;8.05;69.72;96415.35;108587;1272;26204;-73
2024/03/16 04:09:37;;;;;;;11.60;8.50;;;;;;;8.10;69.61;96417.34;108566;1275;25375;-73
2024/03/16 04:12:09;;;;;;;11.30;7.70;;;;;;;8.12;69.38;96413.85;108600;1272;22562;-74
2024/03/16 04:14:40;;;;;;;9.20;6.90;;;;;;;8.17;69.28;96411.52;108564;1272;22561;-73
2024/03/16 04:17:13;;;;;;;10.50;7.70;;;;;;;8.18;69.12;96407.52;108611;1274;24206;-73
2024/03/16 04:19:47;;;;;;;9.20;5.60;;;;;;;8.21;68.99;96407.98;108589;1275;22525;-73
2024/03/16 04:22:20;;;;;;;9.50;6.50;;;;;;;8.23;68.51;96400.67;108586;1275;22536;-73
2024/03/16 04:24:50;;;;;;;13.40;6.70;;;;;;;8.27;68.28;96406.10;108583;1275;22535;-73
2024/03/16 04:27:20;;;;;;;9.50;6.30;;;;;;;8.27;68.21;96403.93;108618;1267;22522;-73
2024/03/16 04:29:51;;;;;;;12.80;8.00;;;;;;;8.28;68.19;96403.62;108606;1275;22592;-73
2024/03/16 04:32:21;;;;;;;10.70;7.40;;;;;;;8.29;68.29;96406.89;108603;1275;22542;-73
2024/03/16 04:34:54;;;;;;;9.40;6.80;;;;;;;8.26;68.26;96404.73;108550;1272;22567;-73
2024/03/16 04:37:25;;;;;;;10.50;7.70;;;;;;;8.22;68.42;96408.82;108531;1275;22534;-73
2024/03/16 04:39:55;;;;;;;10.30;7.30;;;;;;;8.18;68.61;96408.72;108575;1270;24270;-73
2024/03/16 04:42:26;;;;;;;10.40;7.70;;;;;;;8.18;68.82;96406.46;108562;1275;22529;-73
2024/03/16 04:44:56;;;;;;;9.80;6.80;;;;;;;8.19;68.91;96405.02;108590;1275;22646;-73
2024/03/16 04:47:27;;;;;;;12.40;7.70;;;;;;;8.20;68.81;96406.98;108601;1275;22570;-73
2024/03/16 04:49:57;;;;;;;10.30;7.20;;;;;;;8.21;69.00;96405.13;108592;1275;22530;-73
2024/03/16 04:52:27;;;;;;;9.90;7.10;;;;;;;8.19;68.87;96408.98;108551;1275;25338;-73
2024/03/16 04:54:57;;;;;;;9.80;7.20;;;;;;;8.20;69.06;96410.78;108612;1275;22539;-73
2024/03/16 04:57:28;;;;;;;9.70;6.50;;;;;;;8.21;69.07;96410.19;108583;1267;23019;-74
2024/03/16 04:59:58;;;;;;;9.50;7.40;;;;;;;8.23;69.20;96414.41;108601;1269;22516;-73
2024/03/16 05:02:30;;;;;;;9.20;6.30;;;;;;;8.23;69.34;96417.21;108582;1275;22526;-73
2024/03/16 05:05:00;;;;;;;11.90;8.10;;;;;;;8.25;69.14;96415.98;108598;1275;22531;-73
2024/03/16 05:07:32;;;;;;;10.40;8.00;;;;;;;8.27;69.28;96417.46;108577;1275;22523;-73
2024/03/16 05:10:03;;;;;;;11.30;7.80;;;;;;;8.28;69.21;96411.81;108611;1272;22536;-73
2024/03/16 05:12:34;;;;;;;10.90;7.50;;;;;;;8.35;69.03;96410.50;108560;1275;22599;-73
2024/03/16 05:15:05;;;;;;;9.80;6.60;;;;;;;8.42;68.71;96410.43;108615;1272;22536;-73
2024/03/16 05:17:39;;;;;;;9.10;5.40;;;;;;;8.50;68.46;96412.73;108622;1275;22534;-73
2024/03/16 05:20:11;;;;;;;9.80;6.30;;;;;;;8.55;68.19;96414.56;108625;1275;22526;-74
2024/03/16 05:22:45;;;;;;;11.40;7.10;;;;;;;8.59;68.15;96402.87;108583;1275;22539;-74
2024/03/16 05:25:16;;;;;;;9.60;6.90;;;;;;;8.61;68.45;96409.48;108617;1275;22522;-73
2024/03/16 05:27:46;;;;;;;9.90;6.30;;;;;;;8.63;68.53;96414.28;108585;1271;22530;-73
2024/03/16 05:30:19;;;;;;;11.30;6.90;;;;;;;8.67;68.32;96410.98;108597;1275;22576;-74
2024/03/16 05:32:50;;;;;;;9.40;5.80;;;;;;;8.72;68.02;96410.86;108605;1269;22547;-73
2024/03/16 05:35:21;;;;;;;9.70;6.50;;;;;;;8.74;67.89;96412.81;108624;1275;24320;-73
2024/03/16 05:37:51;;;;;;;10.20;7.10;;;;;;;8.77;67.60;96421.04;108595;1272;22544;-73
2024/03/16 05:40:24;;;;;;;10.80;7.80;;;;;;;8.77;67.81;96421.25;108569;1275;22620;-74
2024/03/16 05:42:54;;;;;;;10.00;6.80;;;;;;;8.77;68.08;96428.92;108574;1275;25422;-73
2024/03/16 05:45:25;;;;;;;9.90;7.30;;;;;;;8.77;68.20;96427.86;108585;1275;23291;-73
2024/03/16 05:47:55;;;;;;;9.40;6.30;;;;;;;8.76;68.42;96424.70;108616;1275;22647;-74
2024/03/16 05:50:25;;;;;;;10.70;6.60;;;;;;;8.74;68.62;96430.95;108613;1275;22544;-74
2024/03/16 05:52:56;;;;;;;10.00;6.90;;;;;;;8.73;68.66;96429.04;108564;1275;22534;-73
2024/03/16 05:55:26;;;;;;;11.60;7.40;;;;;;;8.75;68.66;96429.84;108621;1275;22529;-74
2024/03/16 05:57:56;;;;;;;11.50;7.10;;;;;;;8.75;68.80;96432.85;108616;1275;22546;-74
2024/03/16 06:00:27;;;;;;;9.60;6.40;;;;;;;8.70;68.78;96438.88;108624;1269;22929;-74
2024/03/16 06:02:57;;;;;;;11.30;7.60;;;;;;;8.68;68.97;96436.03;108591;1275;22566;-73
2024/03/16 06:05:28;;;;;;;8.90;5.40;;;;;;;8.67;69.12;96438.73;108505;1269;182336;-74
2024/03/16 06:07:59;;;;;;;9.80;6.10;;;;;;;8.67;69.04;96438.94;108562;1275;22528;-73
2024/03/16 06:10:29;;;;;;;9.20;6.80;;;;;;;8.69;69.05;96443.73;108625;1275;22541;-74
2024/03/16 06:13:02;;;;;;;10.00;6.50;;;;;;;8.71;69.16;96444.67;108575;1275;23052;-73
2024/03/16 06:15:33;;;;;;;8.50;6.20;;;;;;;8.71;69.03;96447.59;108617;1272;22542;-73
2024/03/16 06:18:06;;;;;;;10.30;6.30;;;;;;;8.71;69.20;96440.49;108548;1275;22534;-73
2024/03/16 06:20:37;;;;;;;10.20;6.80;;;;;;;8.69;69.40;96443.85;108606;1275;22551;-74
2024/03/16 06:23:08;;;;;;;11.60;8.80;;;;;;;8.69;69.61;96445.74;108589;1275;22550;-73
2024/03/16 06:25:46;;;;;;;10.60;7.90;;;;;;;8.71;69.73;96445.94;108631;1267;22523;-74
2024/03/16 06:28:21;;;;;;;10.80;7.20;;;;;;;8.75;69.87;96452.94;108594;1270;22530;-73
2024/03/16 06:30:56;;;;;;;9.10;5.70;;;;;;;8.76;70.11;96447.54;108658;1275;22533;-73
2024/03/16 06:33:30;;;;;;;12.10;8.10;;;;;;;8.81;69.89;96448.19;108592;1275;22555;-73
2024/03/16 06:36:00;;;;;;;12.40;8.40;;;;;;;8.84;69.98;96448.44;108598;1275;22561;-74
2024/03/16 06:38:31;;;;;;;11.30;8.70;;;;;;;8.86;70.03;96449.70;108648;1275;22541;-73
2024/03/16 06:41:01;;;;;;;9.80;7.40;;;;;;;8.86;70.14;96453.51;108601;1275;22530;-73
2024/03/16 06:43:32;;;;;;;11.50;7.90;;;;;;;8.90;70.13;96457.20;108585;1274;22610;-74
2024/03/16 06:46:05;;;;;;;10.50;7.20;;;;;;;8.93;70.28;96457.88;108582;1275;25366;-73
2024/03/16 06:48:35;;;;;;;11.90;8.30;;;;;;;8.99;70.15;96467.36;108632;1275;24269;-74
2024/03/16 06:51:06;;;;;;;14.50;8.70;;;;;;;9.04;70.21;96466.92;108620;1275;22527;-74
2024/03/16 06:53:36;;;;;;;11.30;6.30;;;;;;;9.10;70.19;96471.33;108570;1273;22551;-73
2024/03/16 06:56:09;;;;;;;11.40;8.10;;;;;;;9.17;69.95;96469.67;108616;1275;22521;-73
2024/03/16 06:58:40;;;;;;;11.50;7.30;;;;;;;9.25;69.75;96468.14;108607;1275;25417;-74
2024/03/16 07:01:13;;;;;;;9.70;7.80;;;;;;;9.29;69.80;96472.30;108587;1267;22534;-73
2024/03/16 07:03:45;;;;;;;9.40;6.40;;;;;;;9.33;69.76;96475.98;108578;1272;24251;-74
2024/03/16 07:06:16;;;;;;;11.00;6.80;;;;;;;9.36;69.57;96476.66;108621;1275;23019;-73
2024/03/16 07:08:46;;;;;;;10.80;7.30;;;;;;;9.36;69.48;96482.38;108581;1275;22523;-73
2024/03/16 07:11:18;;;;;;;12.30;7.60;;;;;;;9.37;69.54;96491.95;108601;1275;22559;-74
2024/03/16 07:13:53;;;;;;;9.50;7.70;;;;;;;9.38;69.78;96495.21;108594;1275;22522;-74
2024/03/16 07:16:24;;;;;;;10.50;7.50;;;;;;;9.39;69.88;96503.73;108636;1275;22531;-74
2024/03/16 07:18:55;;;;;;;12.10;8.30;;;;;;;9.41;70.17;96504.08;108598;1275;26058;-74
2024/03/16 07:21:26;;;;;;;12.20;7.50;;;;;;;9.41;70.24;96507.73;108606;1275;22538;-74
2024/03/16 07:23:57;;;;;;;9.70;7.30;;;;;;;9.40;70.18;96498.90;108561;1267;23029;-74
2024/03/16 07:26:28;;;;;;;10.90;8.40;;;;;;;9.41;70.37;96509.32;108617;1275;22537;-74
2024/03/16 07:28:58;;;;;;;12.00;9.10;;;;;;;9.44;70.61;96506.26;108602;1275;22559;-74
2024/03/16 07:31:29;;;;;;;11.10;6.90;;;;;;;9.46;70.72;96508.63;108608;1275;22528;-74
2024/03/16 07:33:59;;;;;;;13.60;9.70;;;;;;;9.49;70.81;96509.45;108572;1275;25268;-74
2024/03/16 07:36:30;;;;;;;10.60;6.50;;;;;;;9.51;70.86;96502.70;108591;1267;22544;-74
2024/03/16 07:39:08;;;;;;;12.50;8.50;;;;;;;9.54;70.97;96509.05;108620;1275;22586;-73
2024/03/16 07:41:39;;;;;;;10.90;7.40;;;;;;;9.57;71.04;96505.70;108553;1275;22523;-74
2024/03/16 07:44:09;;;;;;;10.60;7.20;;;;;;;9.58;70.99;96515.22;108614;1275;25146;-74
2024/03/16 07:46:42;;;;;;;13.30;8.70;;;;;;;9.59;70.82;96509.46;108580;1275;22551;-74
2024/03/16 07:49:15;;;;;;;11.50;6.60;;;;;;;9.58;71.13;96514.97;108606;1275;22649;-73
2024/03/16 07:51:51;;;;;;;11.40;8.20;;;;;;;9.57;71.21;96510.36;108622;1275;22537;-73
2024/03/16 07:54:24;;;;;;;11.40;8.40;;;;;;;9.56;71.39;96524.22;108739;1269;22516;-74
2024/03/16 07:56:55;;;;;;;12.30;9.50;;;;;;;9.59;71.55;96531.48;108628;1275;24178;-74
2024/03/16 07:59:26;;;;;;;12.60;9.50;;;;;;;9.63;71.54;96529.75;108611;1275;22535;-74
2024/03/16 08:01:57;;;;;;;11.50;8.60;;;;;;;9.68;71.68;96525.90;108589;1275;22547;-73
2024/03/16 08:04:27;;;;;;;11.30;8.70;;;;;;;9.72;71.80;96523.35;108576;1275;22534;-73
2024/03/16 08:07:00;;;;;;;12.90;9.00;;;;;;;9.78;71.90;96523.30;108636;1267;24243;-73
2024/03/16 08:09:33;;;;;;;12.60;9.30;;;;;;;9.85;71.92;96521.56;108623;1274;22523;-73
2024/03/16 08:12:05;;;;;;;11.10;7.20;;;;;;;9.91;72.01;96522.73;108635;1271;22517;-74
2024/03/16 08:14:36;;;;;;;13.10;9.70;;;;;;;9.97;71.80;96521.69;108649;1275;22537;-74
2024/03/16 08:17:07;;;;;;;12.20;8.90;;;;;;;10.04;71.64;96521.70;108593;1275;22527;-74
2024/03/16 08:19:38;;;;;;;11.90;8.40;;;;;;;10.15;71.59;96519.65;108589;1272;22542;-74
2024/03/16 08:22:09;;;;;;;13.00;8.60;;;;;;;10.30;71.45;96515.54;108637;1275;23911;-74
2024/03/16 08:24:42;;;;;;;12.50;9.20;;;;;;;10.44;70.60;96511.55;108576;1275;22636;-74
2024/03/16 08:27:13;;;;;;;10.90;8.60;;;;;;;10.53;70.55;96510.70;108589;1275;22530;-74
2024/03/16 08:29:46;;;;;;;11.70;8.60;;;;;;;10.63;70.60;96511.24;108618;1275;22623;-73
2024/03/16 08:32:21;;;;;;;14.00;9.90;;;;;;;10.68;70.52;96515.73;108638;1275;25244;-74
2024/03/16 08:34:51;;;;;;;10.90;8.00;;;;;;;10.68;70.52;96517.55;108654;1275;22531;-74
2024/03/16 08:37:22;;;;;;;12.80;9.00;;;;;;;10.70;70.66;96515.48;108604;1267;24272;-74
2024/03/16 08:39:52;;;;;;;13.00;8.70;;;;;;;10.71;70.59;96517.27;108618;1275;22540;-73
2024/03/16 08:42:25;;;;;;;11.30;8.60;;;;;;;10.72;70.57;96518.55;108615;1275;23455;-74
2024/03/16 08:44:57;;;;;;;12.20;9.50;;;;;;;10.77;70.66;96514.92;108610;1275;22570;-73
2024/03/16 08:47:27;;;;;;;11.30;9.40;;;;;;;10.81;70.50;96516.09;108580;1275;22545;-73
2024/03/16 08:49:58;;;;;;;10.90;8.80;;;;;;;10.88;70.54;96516.77;108643;1272;22551;-73
2024/03/16 08:52:29;;;;;;;11.40;8.20;;;;;;;10.98;70.56;96512.16;108550;1275;23499;-74
2024/03/16 08:54:59;;;;;;;13.00;7.90;;;;;;;11.00;70.31;96512.72;108657;1275;22526;-74
2024/03/16 08:57:30;;;;;;;12.40;7.90;;;;;;;10.98;70.21;96511.79;108607;1275;23843;-73
2024/03/16 09:00:01;;;;;;;12.30;8.40;;;;;;;10.91;69.87;96514.09;108647;1274;22937;-73
2024/03/16 09:02:35;;;;;;;13.50;9.70;;;;;;;10.87;70.19;96517.95;108646;1267;22538;-73
2024/03/16 09:05:08;;;;;;;11.90;8.50;;;;;;;10.89;70.38;96520.22;108642;1274;24355;-74
2024/03/16 09:07:41;;;;;;;10.40;7.80;;;;;;;10.86;70.36;96522.74;108640;1274;22526;-73
2024/03/16 09:10:17;;;;;;;11.60;7.40;;;;;;;10.72;70.89;96517.95;108686;1274;22554;-73
2024/03/16 09:12:49;;;;;;;10.50;8.10;;;;;;;10.50;72.07;96520.35;108642;1274;22769;-74
2024/03/16 09:15:19;;;;;;;11.40;8.00;;;;;;;10.31;73.21;96524.63;108667;1267;22519;-74
2024/03/16 09:17:54;;;;;;;10.40;7.80;;;;;;;10.09;74.52;96526.10;108677;1261;22519;-74
2024/03/16 09:20:25;;;;;;;11.40;8.70;;;;;;;9.94;75.42;96531.09;108637;1267;22600;-74
2024/03/16 09:22:57;;;;;;;11.70;8.60;;;;;;;9.85;76.11;96529.41;108632;1274;22675;-74
2024/03/16 09:25:29;;;;;;;11.10;8.40;;;;;;;9.73;77.11;96532.92;108682;1274;24332;-73
2024/03/16 09:28:00;;;;;;;11.70;8.60;;;;;;;9.61;77.79;96542.05;108627;1274;22529;-74
2024/03/16 09:30:32;;;;;;;13.40;9.60;;;;;;;9.52;78.52;96541.45;108694;1274;23271;-73
2024/03/16 09:33:03;;;;;;;13.20;9.20;;;;;;;9.45;79.13;96549.05;108629;1274;22526;-74
2024/03/16 09:35:34;;;;;;;11.10;8.20;;;;;;;9.39;79.82;96550.60;108634;1274;22539;-74
2024/03/16 09:38:07;;;;;;;11.50;9.10;;;;;;;9.35;80.44;96551.02;108633;1270;22658;-74
2024/03/16 09:40:43;;;;;;;13.40;9.70;;;;;;;9.33;81.33;96550.65;108638;1267;22585;-74
2024/03/16 09:43:15;;;;;;;12.10;9.20;;;;;;;9.33;81.85;96552.45;108624;1270;22526;-74
2024/03/16 09:45:51;;;;;;;9.70;7.60;;;;;;;9.33;82.35;96552.35;108653;1274;22932;-74
2024/03/16 09:48:24;;;;;;;12.80;9.60;;;;;;;9.35;82.83;96554.92;108619;1270;22545;-74
2024/03/16 09:50:56;;;;;;;11.70;8.40;;;;;;;9.34;82.79;96559.64;108680;1274;22651;-74
2024/03/16 09:53:31;;;;;;;13.10;8.90;;;;;;;9.31;82.75;96563.79;108602;1267;22527;-74
2024/03/16 09:56:04;;;;;;;10.80;8.60;;;;;;;9.25;83.25;96566.23;108690;1267;22560;-74
2024/03/16 09:58:35;;;;;;;11.20;8.80;;;;;;;9.28;83.63;96565.58;108622;1274;22603;-74
2024/03/16 10:01:10;;;;;;;13.00;9.20;;;;;;;9.27;83.85;96567.27;108637;1269;22540;-74
2024/03/16 10:03:42;;;;;;;10.60;8.30;;;;;;;9.28;84.46;96566.31;108628;1274;22529;-73
2024/03/16 10:06:16;;;;;;;12.00;9.50;;;;;;;9.29;84.52;96568.06;108668;1270;22597;-74
2024/03/16 10:09:09;;;;;;;11.80;8.70;;;;;;;9.28;84.92;96569.59;108608;1258;22537;-74
2024/03/16 10:11:41;;;;;;;12.10;8.70;;;;;;;9.29;85.36;96574.52;108640;1267;22530;-74
2024/03/16 10:14:13;;;;;;;10.80;8.40;;;;;;;9.29;85.72;96569.48;108657;1274;22526;-73
2024/03/16 10:16:48;;;;;;;11.70;9.00;;;;;;;9.36;86.39;96568.67;108673;1274;22563;-74
2024/03/16 10:19:21;;;;;;;11.60;9.00;;;;;;;9.40;86.51;96567.85;108621;1270;23423;-74
2024/03/16 10:21:54;;;;;;;12.20;9.20;;;;;;;9.38;86.23;96568.40;108653;1274;22520;-74
2024/03/16 10:24:25;;;;;;;14.20;9.40;;;;;;;9.31;86.35;96564.99;108598;1274;22838;-74
2024/03/16 10:26:59;;;;;;;13.40;10.70;;;;;;;9.20;86.72;96562.13;108635;1274;25588;-74
2024/03/16 10:29:32;;;;;;;15.20;11.60;;;;;;;9.10;87.40;96563.73;108635;1270;24371;-74
2024/03/16 10:32:06;;;;;;;15.10;11.90;;;;;;;9.06;88.13;96566.93;108653;1267;22726;-74
2024/03/16 10:34:43;;;;;;;14.80;11.20;;;;;;;9.04;88.90;96562.91;108606;1274;23483;-74
2024/03/16 10:37:17;;;;;;;12.60;10.90;;;;;;;9.08;89.36;96566.48;108701;1275;22537;-74
2024/03/16 10:39:50;;;;;;;12.40;10.00;;;;;;;9.12;89.45;96560.02;108680;1269;22544;-74
2024/03/16 10:42:21;;;;;;;13.90;10.90;;;;;;;9.13;89.69;96557.95;108713;1267;22530;-74
2024/03/16 10:44:57;;;;;;;14.20;10.90;;;;;;;9.17;90.00;96560.34;108644;1274;22533;-74
2024/03/16 10:47:28;;;;;;;14.50;12.30;;;;;;;9.20;90.51;96558.67;108609;1267;24147;-74
2024/03/16 10:49:59;;;;;;;15.10;12.00;;;;;;;9.26;90.63;96558.98;108679;1274;23857;-74
2024/03/16 10:52:31;;;;;;;14.80;10.90;;;;;;;9.29;91.00;96554.84;108597;1274;23412;-74
2024/03/16 10:55:07;;;;;;;12.80;10.30;;;;;;;9.34;91.16;96554.30;108695;1274;22578;-74
2024/03/16 10:57:41;;;;;;;14.10;11.00;;;;;;;9.39;91.43;96551.41;108660;1275;25377;-74
2024/03/16 11:00:34;;;;;;;14.60;10.00;;;;;;;9.45;91.86;96549.23;108644;1274;26503;-74
2024/03/16 11:03:08;;;;;;;13.10;9.30;;;;;;;9.51;92.28;96545.32;108621;1274;22537;-74
2024/03/16 11:05:46;;;;;;;13.60;9.50;;;;;;;9.56;92.84;96545.34;108680;1274;22557;-74
2024/03/16 11:08:41;;;;;;;11.10;9.40;;;;;;;9.65;93.14;96540.23;108612;1273;22543;-74
2024/03/16 11:11:16;;;;;;;13.40;9.60;;;;;;;9.78;93.36;96540.73;108648;1267;22528;-74
2024/03/16 11:14:05;;;;;;;10.40;8.30;;;;;;;9.84;93.31;96545.77;108668;1267;22525;-73
2024/03/16 11:16:46;;;;;;;11.00;8.40;;;;;;;9.94;93.38;96536.33;108658;1275;22661;-73
2024/03/16 11:19:21;;;;;;;11.10;8.10;;;;;;;10.10;93.24;96540.40;108654;1270;22526;-73
2024/03/16 11:21:53;;;;;;;10.60;8.20;;;;;;;10.22;93.11;96537.42;108659;1270;22540;-73
2024/03/16 11:24:24;;;;;;;10.20;7.70;;;;;;;10.35;93.09;96535.36;108676;1267;24244;-73
2024/03/16 11:26:55;;;;;;;10.00;7.50;;;;;;;10.45;92.99;96531.26;108701;1266;22530;-73
2024/03/16 11:29:27;;;;;;;10.50;8.10;;;;;;;10.56;92.94;96528.40;108785;1274;22565;-73
2024/03/16 11:31:59;;;;;;;10.20;7.20;;;;;;;10.68;92.95;96530.08;108770;1275;22561;-73
2024/03/16 11:34:32;;;;;;;9.20;6.00;;;;;;;10.82;92.71;96531.42;108717;1267;24219;-73
2024/03/16 11:37:08;;;;;;;10.30;7.60;;;;;;;10.91;92.44;96528.95;108812;1274;22545;-73
2024/03/16 11:39:45;;;;;;;9.20;6.50;;;;;;;10.99;91.90;96532.09;108703;1267;22532;-73
2024/03/16 11:42:19;;;;;;;9.40;7.20;;;;;;;11.02;91.34;96525.06;108672;1269;22659;-73
2024/03/16 11:44:52;;;;;;;9.90;7.30;;;;;;;11.09;91.10;96524.83;108762;1267;24421;-73
2024/03/16 11:47:24;;;;;;;10.90;8.40;;;;;;;11.17;90.86;96520.05;108659;1274;22526;-73